Udo Maru — JM6522 — position and weather

sailwx.info

Track history (hours):
 
Tides and Currents Weather Stations Pressure Air Temp Water Temp Dewpoint Dewpoint Depression Visibility Wind Speed Wind Dir Waves Ship Positions

Udo Maru

Last reported at 2016-Jun-27 14:33 UTC. Time now 2016-Jun-27 15:02 UTC.
Position N 34°11' E 134°60'.

Length 87 m; draft 4.9 m.

Type: Cargo ship. MMSI: 431600499.

Date/timePositionNaut miles runAvg speedWind from/ knotsBaromVisibWave heightAir tempDewpointWater temp
2016-Jun-27 14:33N 34°11' E 134°60'235 5.0
2016-Jun-25 15:30N 35°05' E 139°37'910.0
2016-Jun-25 14:34N 35°12' E 139°45'1110.6
2016-Jun-25 13:34N 35°22' E 139°42'1111.3
2016-Jun-25 12:33N 35°30' E 139°52'7 6.9
2016-Jun-25 11:33N 35°37' E 139°56'0 0.0
2016-Jun-25 10:33N 35°37' E 139°56'0 0.0
2016-Jun-25 09:34N 35°37' E 139°56'0 0.0
2016-Jun-25 08:31N 35°37' E 139°56'0 0.1
2016-Jun-25 07:34N 35°37' E 139°56'0 0.0
2016-Jun-25 06:33N 35°37' E 139°56'0 0.0
2016-Jun-25 05:33N 35°37' E 139°56'0 0.0
2016-Jun-25 04:33N 35°37' E 139°56'1 0.8
2016-Jun-25 03:33N 35°37' E 139°56'4 4.0
2016-Jun-25 02:32N 35°41' E 139°57'0 0.0
2016-Jun-25 01:29N 35°41' E 139°57'0 0.0
2016-Jun-25 00:26N 35°41' E 139°57'0 0.0
2016-Jun-24 23:11N 35°41' E 139°57'0 0.2
2016-Jun-24 22:27N 35°41' E 139°58'3 3.7
2016-Jun-24 21:34N 35°37' E 139°58'0 0.0
2016-Jun-24 20:34N 35°37' E 139°58'0 0.0
2016-Jun-24 19:33N 35°37' E 139°58'0 0.0
2016-Jun-24 18:34N 35°37' E 139°58'0 0.0
2016-Jun-24 17:33N 35°37' E 139°58'1 1.4
2016-Jun-24 16:33N 35°36' E 139°57'1211.6
2016-Jun-24 15:34N 35°27' E 139°49'1010.1
2016-Jun-24 14:33N 35°17' E 139°45'1110.8
2016-Jun-24 13:33N 35°06' E 139°45'242 9.7
2016-Jun-23 12:32N 34°04' E 135°02'1010.4
2016-Jun-23 11:33N 34°14' E 135°03'10 9.7
2016-Jun-23 10:33N 34°22' E 135°09'0 0.4
2016-Jun-23 09:33N 34°23' E 135°10'0 0.0
2016-Jun-23 08:33N 34°23' E 135°10'0 0.0
2016-Jun-23 07:22N 34°23' E 135°10'0 0.0
2016-Jun-23 05:33N 34°23' E 135°10'0 0.0
2016-Jun-23 04:33N 34°23' E 135°10'0 0.0
2016-Jun-23 03:20N 34°23' E 135°10'0 0.1
2016-Jun-23 02:33N 34°23' E 135°10'0 0.1
2016-Jun-23 01:33N 34°23' E 135°10'0 0.0
2016-Jun-23 00:33N 34°23' E 135°10'0 0.0
2016-Jun-22 23:33N 34°23' E 135°10'0 0.1
2016-Jun-22 22:33N 34°23' E 135°10'0 0.0
2016-Jun-22 21:33N 34°23' E 135°10'3 3.3
2016-Jun-22 20:33N 34°26' E 135°08'1111.1
2016-Jun-22 19:33N 34°36' E 135°03'  
Track history (hours):
 
Tides and Currents Weather Stations Pressure Air Temp Water Temp Dewpoint Dewpoint Depression Visibility Wind Speed Wind Dir Waves Ship Positions

Udo Maru

Last reported at 2016-Jun-27 14:33 UTC. Time now 2016-Jun-27 15:02 UTC.
Position N 34°11' E 134°60'.

Length 87 m; draft 4.9 m.

Type: Cargo ship. MMSI: 431600499.

Date/timePositionNaut miles runAvg speedWind from/ knotsBaromVisibWave heightAir tempDewpointWater temp
2016-Jun-27 14:33N 34°11' E 134°60'235 5.0
2016-Jun-25 15:30N 35°05' E 139°37'910.0
2016-Jun-25 14:34N 35°12' E 139°45'1110.6
2016-Jun-25 13:34N 35°22' E 139°42'1111.3
2016-Jun-25 12:33N 35°30' E 139°52'7 6.9
2016-Jun-25 11:33N 35°37' E 139°56'0 0.0
2016-Jun-25 10:33N 35°37' E 139°56'0 0.0
2016-Jun-25 09:34N 35°37' E 139°56'0 0.0
2016-Jun-25 08:31N 35°37' E 139°56'0 0.1
2016-Jun-25 07:34N 35°37' E 139°56'0 0.0
2016-Jun-25 06:33N 35°37' E 139°56'0 0.0
2016-Jun-25 05:33N 35°37' E 139°56'0 0.0
2016-Jun-25 04:33N 35°37' E 139°56'1 0.8
2016-Jun-25 03:33N 35°37' E 139°56'4 4.0
2016-Jun-25 02:32N 35°41' E 139°57'0 0.0
2016-Jun-25 01:29N 35°41' E 139°57'0 0.0
2016-Jun-25 00:26N 35°41' E 139°57'0 0.0
2016-Jun-24 23:11N 35°41' E 139°57'0 0.2
2016-Jun-24 22:27N 35°41' E 139°58'3 3.7
2016-Jun-24 21:34N 35°37' E 139°58'0 0.0
2016-Jun-24 20:34N 35°37' E 139°58'0 0.0
2016-Jun-24 19:33N 35°37' E 139°58'0 0.0
2016-Jun-24 18:34N 35°37' E 139°58'0 0.0
2016-Jun-24 17:33N 35°37' E 139°58'1 1.4
2016-Jun-24 16:33N 35°36' E 139°57'1211.6
2016-Jun-24 15:34N 35°27' E 139°49'1010.1
2016-Jun-24 14:33N 35°17' E 139°45'1110.8
2016-Jun-24 13:33N 35°06' E 139°45'242 9.7
2016-Jun-23 12:32N 34°04' E 135°02'1010.4
2016-Jun-23 11:33N 34°14' E 135°03'10 9.7
2016-Jun-23 10:33N 34°22' E 135°09'0 0.4
2016-Jun-23 09:33N 34°23' E 135°10'0 0.0
2016-Jun-23 08:33N 34°23' E 135°10'0 0.0
2016-Jun-23 07:22N 34°23' E 135°10'0 0.0
2016-Jun-23 05:33N 34°23' E 135°10'0 0.0
2016-Jun-23 04:33N 34°23' E 135°10'0 0.0
2016-Jun-23 03:20N 34°23' E 135°10'0 0.1
2016-Jun-23 02:33N 34°23' E 135°10'0 0.1
2016-Jun-23 01:33N 34°23' E 135°10'0 0.0
2016-Jun-23 00:33N 34°23' E 135°10'0 0.0
2016-Jun-22 23:33N 34°23' E 135°10'0 0.1
2016-Jun-22 22:33N 34°23' E 135°10'0 0.0
2016-Jun-22 21:33N 34°23' E 135°10'3 3.3
2016-Jun-22 20:33N 34°26' E 135°08'1111.1
2016-Jun-22 19:33N 34°36' E 135°03'  

Dump ship's entire track history